Time;durP1;ratioP1;P1;durP2;ratioP2;P2;SDS_P1;SDS_P2;PMS_P1;PMS_P2;Temp;Humidity;BMP_temperature;BMP_pressure;BME280_temperature;BME280_humidity;BME280_pressure;Samples;Min_cycle;Max_cycle;Signal;HPM_P1;HPM_P2
2022/12/18 00:02:16;;;;;;;4.25;3.13;;;;;;;-1.54;84.69;102206.78;4947349;29;20518;-67
2022/12/18 00:04:41;;;;;;;6.80;3.10;;;;;;;-1.40;84.54;102207.28;4948628;28;20031;-67
2022/12/18 00:07:06;;;;;;;3.17;2.53;;;;;;;-1.45;83.76;102204.56;4954397;28;20507;-67
2022/12/18 00:09:32;;;;;;;5.80;3.20;;;;;;;-1.61;83.92;102208.75;4955416;28;20499;-67
2022/12/18 00:11:57;;;;;;;11.52;2.83;;;;;;;-1.50;84.17;102212.38;4951942;28;20027;-67
2022/12/18 00:14:23;;;;;;;5.80;3.63;;;;;;;-1.51;84.15;102208.94;4955471;28;20485;-66
2022/12/18 00:16:48;;;;;;;4.88;3.47;;;;;;;-1.54;84.27;102213.88;4955254;28;20122;-66
2022/12/18 00:19:14;;;;;;;10.73;3.10;;;;;;;-1.48;84.00;102212.94;4955169;28;20035;-67
2022/12/18 00:21:41;;;;;;;8.18;3.17;;;;;;;-1.54;83.09;102211.25;4950262;28;20050;-67
2022/12/18 00:24:08;;;;;;;7.07;3.47;;;;;;;-1.64;83.41;102211.03;4954183;28;20106;-67
2022/12/18 00:26:35;;;;;;;11.68;4.78;;;;;;;-1.68;83.47;102215.22;4954968;28;20381;-67
2022/12/18 00:29:06;;;;;;;7.32;2.78;;;;;;;-1.65;83.68;102222.66;4950318;28;20042;-67
2022/12/18 00:31:32;;;;;;;3.17;2.80;;;;;;;-1.45;83.66;102223.84;4952268;29;20106;-67
2022/12/18 00:34:00;;;;;;;3.05;2.60;;;;;;;-1.53;83.13;102223.44;4936846;29;20036;-67
2022/12/18 00:36:28;;;;;;;2.70;2.10;;;;;;;-1.73;83.28;102223.03;4953006;29;20035;-67
2022/12/18 00:38:56;;;;;;;5.32;2.25;;;;;;;-1.60;83.44;102233.31;4955024;28;20062;-66
2022/12/18 00:44:07;;;;;;;5.53;3.47;;;;;;;-1.46;82.89;102237.28;4944116;28;20448;-67
2022/12/18 00:46:33;;;;;;;2.70;2.10;;;;;;;-1.59;82.31;102242.84;4947172;28;20030;-67
2022/12/18 00:48:59;;;;;;;5.72;3.45;;;;;;;-1.68;82.41;102244.25;4951269;28;20027;-66
2022/12/18 00:51:25;;;;;;;7.10;2.17;;;;;;;-1.63;82.39;102244.34;4931717;29;20035;-67
2022/12/18 00:53:50;;;;;;;3.83;3.03;;;;;;;-1.73;82.56;102242.31;4954465;29;20043;-67
2022/12/18 00:56:16;;;;;;;14.07;3.65;;;;;;;-1.62;82.44;102240.66;4953505;29;20392;-67
2022/12/18 00:58:42;;;;;;;9.88;3.10;;;;;;;-1.51;82.20;102232.69;4949706;28;20070;-66
2022/12/18 01:01:08;;;;;;;6.97;2.70;;;;;;;-1.59;82.10;102240.19;4967821;28;20038;-66
2022/12/18 01:03:33;;;;;;;11.50;3.08;;;;;;;-1.63;82.13;102234.59;4954312;28;20031;-65
2022/12/18 01:05:59;;;;;;;6.47;3.58;;;;;;;-1.60;82.14;102241.22;4953424;28;20400;-66
2022/12/18 01:08:25;;;;;;;2.85;2.30;;;;;;;-1.59;81.20;102248.13;4944071;29;20031;-67
2022/12/18 01:10:50;;;;;;;11.93;3.08;;;;;;;-1.72;81.29;102246.53;4952215;29;20085;-66
2022/12/18 01:13:15;;;;;;;5.90;2.67;;;;;;;-1.76;81.99;102252.53;4952733;29;20562;-66
2022/12/18 01:15:48;;;;;;;2.97;1.88;;;;;;;-1.72;81.10;102253.69;4953133;28;20043;-67
2022/12/18 01:18:14;;;;;;;4.38;2.65;;;;;;;-1.84;81.95;102251.84;4954582;28;20945;-66
2022/12/18 01:20:39;;;;;;;6.22;3.10;;;;;;;-1.69;81.73;102253.19;4948484;29;20126;-66
2022/12/18 01:23:05;;;;;;;8.35;4.47;;;;;;;-1.83;81.76;102250.81;4952821;28;20054;-66
2022/12/18 01:25:33;;;;;;;4.90;2.85;;;;;;;-2.01;82.08;102258.88;4953907;28;20045;-67
2022/12/18 01:27:58;;;;;;;12.88;4.07;;;;;;;-1.92;82.35;102251.41;4952539;29;20031;-66
2022/12/18 01:30:25;;;;;;;4.07;2.45;;;;;;;-2.00;81.91;102247.31;4951917;28;20027;-67
2022/12/18 01:32:52;;;;;;;5.63;3.83;;;;;;;-2.06;82.05;102245.59;4953133;28;20039;-67
2022/12/18 01:35:18;;;;;;;3.88;2.80;;;;;;;-2.06;82.52;102248.22;4954439;28;20400;-66
2022/12/18 01:37:45;;;;;;;5.28;2.25;;;;;;;-2.08;82.38;102241.56;4946122;28;20512;-66
2022/12/18 01:40:11;;;;;;;11.55;3.03;;;;;;;-2.17;82.90;102235.03;4927995;29;20138;-65
2022/12/18 01:42:36;;;;;;;3.63;2.65;;;;;;;-2.00;82.77;102225.38;4950410;29;20573;-66
2022/12/18 01:45:09;;;;;;;3.13;2.17;;;;;;;-1.79;81.68;102231.88;4949000;28;20496;-66
2022/12/18 01:47:55;;;;;;;4.30;2.85;;;;;;;-2.16;82.25;102232.16;4966808;28;20179;-67
2022/12/18 01:50:20;;;;;;;4.20;2.60;;;;;;;-2.16;82.39;102237.44;4944638;29;20121;-65
2022/12/18 01:52:51;;;;;;;12.35;2.53;;;;;;;-2.17;82.65;102238.47;4948093;28;20070;-66
2022/12/18 01:55:19;;;;;;;11.00;3.17;;;;;;;-2.03;82.42;102246.94;4945715;28;20039;-65
2022/12/18 01:57:46;;;;;;;4.50;2.78;;;;;;;-2.14;82.26;102253.03;4948952;28;20039;-65
2022/12/18 02:00:17;;;;;;;4.88;2.10;;;;;;;-2.12;82.41;102257.06;4934449;29;20031;-66
2022/12/18 02:02:44;;;;;;;4.10;1.95;;;;;;;-1.92;81.41;102257.47;4949957;29;20050;-65
2022/12/18 02:05:15;;;;;;;3.35;2.03;;;;;;;-2.07;81.99;102246.59;4950700;28;20036;-65
2022/12/18 02:07:59;;;;;;;5.80;3.83;;;;;;;-2.15;82.12;102254.84;4968939;28;20042;-65
2022/12/18 02:10:56;;;;;;;4.93;2.25;;;;;;;-2.07;82.07;102270.34;4951266;28;20511;-65
2022/12/18 02:13:38;;;;;;;3.95;2.65;;;;;;;-2.06;81.76;102265.88;4947767;29;20051;-66
2022/12/18 02:16:19;;;;;;;4.18;3.30;;;;;;;-2.13;81.64;102268.63;4967033;28;20031;-65
2022/12/18 02:18:47;;;;;;;;;;;;;;;-2.10;81.66;102272.66;4951868;29;20039;-65
2022/12/18 02:21:36;;;;;;;2.47;2.03;;;;;;;-2.14;81.64;102264.41;4951523;29;19918;-65
2022/12/18 02:24:15;;;;;;;4.05;2.55;;;;;;;-2.07;81.33;102265.06;4943845;29;20194;-67
2022/12/18 02:26:47;;;;;;;4.90;2.47;;;;;;;-2.23;81.71;102259.69;4946011;28;20066;-67
2022/12/18 02:29:22;;;;;;;3.28;1.58;;;;;;;-2.01;80.89;102264.16;4950109;28;20050;-66
2022/12/18 02:31:58;;;;;;;2.53;2.10;;;;;;;-2.20;81.55;102259.22;4944910;28;20408;-65
2022/12/18 02:34:28;;;;;;;2.88;2.03;;;;;;;-2.02;81.39;102273.09;4950852;29;20035;-65
2022/12/18 02:36:57;;;;;;;2.33;2.13;;;;;;;-2.16;81.63;102270.94;4952016;29;20035;-65
2022/12/18 02:39:25;;;;;;;3.28;2.97;;;;;;;-2.21;81.74;102268.19;4947424;28;20473;-65
2022/12/18 02:42:07;;;;;;;4.75;2.33;;;;;;;-2.36;82.36;102265.22;4957828;28;20027;-65
2022/12/18 02:44:35;;;;;;;3.25;2.53;;;;;;;-2.36;81.95;102271.25;4953306;28;20019;-66
2022/12/18 02:47:02;;;;;;;3.30;1.75;;;;;;;-2.54;83.36;102268.75;4932929;29;20049;-67
2022/12/18 02:50:05;;;;;;;4.80;3.03;;;;;;;-2.65;82.97;102274.78;4950244;29;20504;-65
2022/12/18 02:52:45;;;;;;;2.17;1.73;;;;;;;-2.64;84.13;102284.31;4950249;29;20035;-65
2022/12/18 02:55:27;;;;;;;2.53;2.13;;;;;;;-2.51;83.80;102268.28;4949667;28;20106;-66
2022/12/18 02:58:25;;;;;;;4.82;2.75;;;;;;;-2.37;83.61;102261.75;4948435;29;20584;-66
2022/12/18 03:01:06;;;;;;;1.90;1.73;;;;;;;-2.36;83.07;102258.06;4951064;29;20039;-67
2022/12/18 03:03:39;;;;;;;5.03;2.80;;;;;;;-2.46;82.80;102275.50;4946048;28;20149;-65
2022/12/18 03:06:10;;;;;;;8.48;2.13;;;;;;;-2.49;82.76;102273.31;4951520;29;20548;-66
2022/12/18 03:09:01;;;;;;;3.15;2.45;;;;;;;-2.43;82.63;102275.03;4950823;29;20063;-66
2022/12/18 03:14:20;;;;;;;3.85;2.83;;;;;;;-2.48;82.74;102282.84;4889720;29;20036;-66
2022/12/18 03:16:53;;;;;;;4.55;2.97;;;;;;;-2.60;82.72;102289.94;4880233;29;20814;-66
2022/12/18 03:19:21;;;;;;;2.60;1.58;;;;;;;-2.46;82.60;102280.78;4882487;29;20119;-66
2022/12/18 03:21:54;;;;;;;4.25;2.30;;;;;;;-2.53;82.74;102291.44;4880742;29;20405;-66
2022/12/18 03:24:21;;;;;;;1.90;1.73;;;;;;;-2.45;82.53;102283.19;4883036;29;20521;-66
2022/12/18 03:26:52;;;;;;;4.47;2.17;;;;;;;-2.47;82.50;102287.06;4877826;29;20119;-66
2022/12/18 03:29:24;;;;;;;6.13;2.83;;;;;;;-2.46;82.13;102283.41;4899221;29;20051;-66
2022/12/18 03:31:55;;;;;;;3.20;2.15;;;;;;;-2.53;82.35;102280.06;4891900;29;20032;-66
2022/12/18 03:34:27;;;;;;;11.15;3.95;;;;;;;-2.53;82.28;102280.88;4873006;29;20049;-66
2022/12/18 03:36:52;;;;;;;4.32;2.30;;;;;;;-2.53;82.46;102285.34;4892772;29;20056;-65
2022/12/18 03:39:19;;;;;;;7.72;3.05;;;;;;;-2.46;82.50;102300.06;4876363;29;20074;-66
2022/12/18 03:42:04;;;;;;;3.13;2.83;;;;;;;-2.32;80.99;102298.00;4880891;29;20048;-66
2022/12/18 03:44:55;;;;;;;3.53;2.20;;;;;;;-2.43;80.82;102293.50;4896502;29;20129;-66
2022/12/18 03:47:35;;;;;;;7.47;3.17;;;;;;;-2.46;81.05;102288.69;4898124;29;20464;-66
2022/12/18 03:50:34;;;;;;;4.22;2.50;;;;;;;-2.72;82.03;102278.56;4959248;28;20032;-66
2022/12/18 03:53:18;;;;;;;3.70;2.20;;;;;;;-2.70;82.31;102279.94;4953866;29;20039;-65
2022/12/18 03:55:48;;;;;;;2.72;2.55;;;;;;;-2.68;82.25;102277.06;4954890;28;20485;-65
2022/12/18 03:58:19;;;;;;;4.97;3.10;;;;;;;-2.65;82.61;102284.53;4947248;28;20026;-65
2022/12/18 04:00:56;;;;;;;4.78;2.55;;;;;;;-2.78;82.25;102275.81;4945085;29;20123;-65
2022/12/18 04:03:24;;;;;;;8.60;2.47;;;;;;;-2.89;82.91;102281.84;4953763;29;20135;-66
2022/12/18 04:05:52;;;;;;;6.63;2.53;;;;;;;-2.89;83.56;102278.41;4954875;29;20016;-65
2022/12/18 04:08:21;;;;;;;5.63;2.90;;;;;;;-2.87;83.76;102268.44;4951416;28;20058;-65
2022/12/18 04:10:55;;;;;;;2.85;2.35;;;;;;;-3.11;84.14;102269.41;4946490;28;20042;-65
2022/12/18 04:13:27;;;;;;;5.80;2.83;;;;;;;-3.05;84.48;102273.78;4953402;28;20392;-67
2022/12/18 04:15:54;;;;;;;5.28;2.60;;;;;;;-3.06;84.40;102277.44;4950559;28;20035;-66
2022/12/18 04:18:21;;;;;;;4.90;2.90;;;;;;;-3.20;85.66;102273.38;4950152;28;20043;-66
2022/12/18 04:20:47;;;;;;;6.65;3.33;;;;;;;-3.14;85.08;102272.50;4935170;29;20038;-66
2022/12/18 04:23:13;;;;;;;5.20;3.88;;;;;;;-3.01;85.54;102272.28;4948066;29;20031;-66
2022/12/18 04:25:39;;;;;;;2.60;2.40;;;;;;;-3.19;84.52;102261.81;4953890;29;20143;-66
2022/12/18 04:28:09;;;;;;;3.23;2.40;;;;;;;-3.40;85.89;102268.38;4951602;29;20484;-66
2022/12/18 04:30:38;;;;;;;1.73;1.50;;;;;;;-3.22;86.39;102268.34;4948806;28;20291;-66
2022/12/18 04:33:08;;;;;;;4.53;2.75;;;;;;;-3.08;85.27;102277.66;4951552;29;20020;-66
2022/12/18 04:35:34;;;;;;;4.65;3.30;;;;;;;-2.84;85.14;102274.06;4950406;29;20035;-66
2022/12/18 04:38:00;;;;;;;4.88;3.20;;;;;;;-2.79;84.45;102281.31;4955273;28;20503;-64
2022/12/18 04:40:26;;;;;;;4.18;3.65;;;;;;;-2.85;84.72;102280.38;4950320;29;20054;-65
2022/12/18 04:42:52;;;;;;;6.80;3.40;;;;;;;-2.83;84.05;102280.16;4948782;29;20093;-66
2022/12/18 04:45:18;;;;;;;9.07;3.30;;;;;;;-2.80;84.01;102288.41;4955109;28;20059;-66
2022/12/18 04:47:44;;;;;;;7.55;2.88;;;;;;;-2.99;84.20;102289.50;4955137;28;20110;-66
2022/12/18 04:50:09;;;;;;;4.95;3.22;;;;;;;-2.93;84.27;102277.25;4948362;28;20126;-66
2022/12/18 04:52:35;;;;;;;4.10;2.83;;;;;;;-2.85;83.67;102276.94;4952718;28;20039;-66
2022/12/18 04:55:00;;;;;;;3.70;2.80;;;;;;;-2.79;83.59;102273.41;4944138;28;20031;-66
2022/12/18 04:57:26;;;;;;;3.40;2.38;;;;;;;-2.66;83.06;102275.81;4949796;29;20035;-66
2022/12/18 04:59:51;;;;;;;6.93;3.22;;;;;;;-2.85;83.27;102277.75;4954316;29;20046;-66
2022/12/18 05:02:17;;;;;;;6.03;2.95;;;;;;;-2.71;83.21;102275.72;4952419;28;20485;-66
2022/12/18 05:04:42;;;;;;;9.48;3.25;;;;;;;-2.91;83.12;102289.19;4952993;29;20039;-65
2022/12/18 05:07:10;;;;;;;2.20;2.08;;;;;;;-2.88;83.46;102291.34;4955021;28;20640;-66
2022/12/18 05:09:36;;;;;;;2.57;2.23;;;;;;;-2.98;83.25;102300.84;4950436;29;20046;-66
2022/12/18 05:12:01;;;;;;;9.82;4.95;;;;;;;-3.01;83.70;102302.09;4949164;29;20031;-66
2022/12/18 05:14:28;;;;;;;3.47;2.50;;;;;;;-3.08;83.53;102308.47;4952474;29;20039;-66
2022/12/18 05:16:54;;;;;;;8.77;4.10;;;;;;;-3.18;84.10;102297.66;4952878;29;20114;-67
2022/12/18 05:19:19;;;;;;;5.72;3.75;;;;;;;-3.15;83.94;102305.09;4952897;28;20632;-66
2022/12/18 05:21:45;;;;;;;3.33;2.90;;;;;;;-3.04;84.36;102304.38;4953568;28;20148;-66
2022/12/18 05:24:10;;;;;;;14.07;2.28;;;;;;;-2.93;83.83;102308.88;4936417;29;20038;-66
2022/12/18 05:26:36;;;;;;;3.08;2.78;;;;;;;-3.00;83.62;102313.44;4949275;28;20114;-66
2022/12/18 05:29:01;;;;;;;7.13;4.15;;;;;;;-3.08;84.01;102313.75;4947985;28;20052;-67
2022/12/18 05:31:27;;;;;;;5.22;4.00;;;;;;;-3.12;83.86;102316.00;4942490;28;20731;-66
2022/12/18 05:33:52;;;;;;;6.70;2.60;;;;;;;-3.14;84.24;102322.53;4966822;28;20035;-66
2022/12/18 05:36:17;;;;;;;6.18;2.88;;;;;;;-3.18;84.21;102322.16;4953959;29;20423;-65
2022/12/18 05:38:43;;;;;;;6.00;3.63;;;;;;;-3.26;84.54;102317.22;4954024;28;20530;-65
2022/12/18 05:41:09;;;;;;;4.70;3.70;;;;;;;-3.21;84.48;102316.53;4947446;28;20041;-65
2022/12/18 05:43:36;;;;;;;7.30;3.28;;;;;;;-3.28;84.12;102313.19;4953212;28;20067;-64
2022/12/18 05:46:07;;;;;;;4.53;3.05;;;;;;;-3.32;84.58;102317.28;4968371;28;20126;-66
2022/12/18 05:48:33;;;;;;;1.48;1.40;;;;;;;-3.10;83.93;102321.06;4950392;28;20039;-65
2022/12/18 05:51:07;;;;;;;6.93;2.80;;;;;;;-2.98;83.67;102324.53;4951687;28;20106;-65
2022/12/18 05:53:33;;;;;;;3.28;2.28;;;;;;;-2.97;82.80;102326.13;4952680;28;20119;-66
2022/12/18 05:56:04;;;;;;;4.55;3.53;;;;;;;-3.07;82.79;102321.41;4952039;28;20070;-65
2022/12/18 05:58:30;;;;;;;5.82;3.53;;;;;;;-3.20;82.85;102320.78;4950345;28;20042;-65
2022/12/18 06:00:56;;;;;;;8.55;3.55;;;;;;;-3.32;83.18;102318.09;4939315;28;20146;-66
2022/12/18 06:03:22;;;;;;;3.97;2.83;;;;;;;-3.29;83.74;102306.31;4941586;28;20110;-66
2022/12/18 06:05:47;;;;;;;6.57;4.00;;;;;;;-3.26;83.52;102313.75;4953505;28;20028;-65
2022/12/18 06:08:33;;;;;;;4.45;3.33;;;;;;;-3.28;83.53;102311.34;4952420;28;20112;-65
2022/12/18 06:10:58;;;;;;;4.60;3.10;;;;;;;-3.29;83.35;102315.00;4898527;29;20059;-65
2022/12/18 06:13:24;;;;;;;5.70;3.43;;;;;;;-3.11;82.74;102319.44;4909931;29;20080;-65
2022/12/18 06:15:49;;;;;;;5.60;3.20;;;;;;;-3.33;83.26;102326.22;4906930;29;20124;-65
2022/12/18 06:18:15;;;;;;;8.43;4.03;;;;;;;-3.36;83.30;102332.72;4902230;29;20044;-65
2022/12/18 06:20:41;;;;;;;2.87;2.67;;;;;;;-3.38;83.50;102328.69;4909917;29;20055;-65
2022/12/18 06:23:06;;;;;;;4.97;3.63;;;;;;;-3.55;84.37;102331.13;4912321;29;20128;-65
2022/12/18 06:25:32;;;;;;;4.57;3.75;;;;;;;-3.47;84.50;102335.28;4909026;29;20525;-65
2022/12/18 06:27:58;;;;;;;3.00;2.30;;;;;;;-3.56;84.40;102339.25;4907583;29;20067;-65
2022/12/18 06:30:24;;;;;;;4.50;3.20;;;;;;;-3.82;84.94;102346.38;4896563;29;20048;-65
2022/12/18 06:32:49;;;;;;;6.50;3.30;;;;;;;-3.54;84.78;102347.72;4909904;29;20134;-65
2022/12/18 06:35:15;;;;;;;3.07;2.40;;;;;;;-3.23;84.10;102355.47;4912361;29;20080;-65
2022/12/18 06:37:40;;;;;;;5.30;3.17;;;;;;;-3.40;84.32;102349.16;4897027;29;20032;-66
2022/12/18 06:40:06;;;;;;;8.80;4.73;;;;;;;-3.43;84.41;102357.50;4911599;29;20047;-65
2022/12/18 06:42:32;;;;;;;6.70;3.97;;;;;;;-3.44;83.91;102361.16;4900344;29;20053;-65
2022/12/18 06:44:57;;;;;;;2.75;2.53;;;;;;;-3.61;84.59;102360.94;4894896;29;20059;-65
2022/12/18 06:47:22;;;;;;;3.85;2.42;;;;;;;-3.43;84.47;102368.03;4908066;29;20051;-65
2022/12/18 06:49:49;;;;;;;3.83;2.77;;;;;;;-3.32;84.05;102365.47;4953288;29;20405;-65
2022/12/18 06:52:17;;;;;;;7.85;3.15;;;;;;;-3.37;83.71;102362.72;4947484;28;20046;-66
2022/12/18 06:54:43;;;;;;;4.83;2.37;;;;;;;-3.43;83.14;102373.31;4942601;28;20039;-66
2022/12/18 06:57:08;;;;;;;4.30;2.30;;;;;;;-3.43;83.15;102363.59;4949694;29;20035;-65
2022/12/18 06:59:34;;;;;;;4.97;3.60;;;;;;;-3.45;83.19;102370.91;4948550;29;20309;-65
2022/12/18 07:01:59;;;;;;;6.05;2.75;;;;;;;-3.46;82.98;102364.00;4950803;28;20027;-65
2022/12/18 07:04:31;;;;;;;8.70;3.47;;;;;;;-3.52;83.74;102364.09;4951937;28;20050;-65
2022/12/18 07:06:57;;;;;;;4.77;3.00;;;;;;;-3.52;83.62;102367.50;4952357;28;20488;-65
2022/12/18 07:09:23;;;;;;;4.33;3.50;;;;;;;-3.47;83.93;102362.41;4952135;28;20039;-65
2022/12/18 07:11:48;;;;;;;6.20;3.30;;;;;;;-3.50;83.45;102359.41;4939017;28;20437;-65
2022/12/18 07:14:14;;;;;;;2.92;1.75;;;;;;;-3.37;83.48;102360.06;4950813;28;20051;-65
2022/12/18 07:16:40;;;;;;;7.10;3.77;;;;;;;-3.42;83.09;102357.28;4952302;28;20506;-66
2022/12/18 07:19:06;;;;;;;6.57;2.83;;;;;;;-3.51;82.53;102349.91;4950324;28;20043;-65
2022/12/18 07:21:31;;;;;;;6.10;3.38;;;;;;;-3.58;82.98;102359.69;4952006;28;20042;-65
2022/12/18 07:23:56;;;;;;;5.93;3.50;;;;;;;-3.69;83.21;102367.28;4949793;29;20086;-65
2022/12/18 07:26:22;;;;;;;7.57;3.95;;;;;;;-3.69;83.57;102364.66;4949259;28;20142;-65
2022/12/18 07:28:51;;;;;;;7.15;2.83;;;;;;;-3.63;83.97;102377.97;4946997;28;20039;-66
2022/12/18 07:31:20;;;;;;;6.38;3.88;;;;;;;-3.95;84.92;102375.41;4944724;29;20566;-65
2022/12/18 07:33:46;;;;;;;5.03;3.70;;;;;;;-3.71;84.78;102373.78;4946276;28;20058;-65
2022/12/18 07:36:12;;;;;;;4.07;2.13;;;;;;;-3.78;84.24;102373.88;4945477;28;20039;-66
2022/12/18 07:38:37;;;;;;;4.93;3.07;;;;;;;-3.62;83.87;102384.84;4949654;29;20085;-65
2022/12/18 07:41:11;;;;;;;9.77;4.17;;;;;;;-3.48;82.68;102373.16;4960844;28;20046;-66
2022/12/18 07:43:40;;;;;;;4.57;3.80;;;;;;;-3.44;82.42;102384.84;4938735;29;20717;-65
2022/12/18 07:46:07;;;;;;;7.33;3.10;;;;;;;-3.48;83.23;102386.31;4934089;29;20024;-65
2022/12/18 07:48:33;;;;;;;5.57;2.53;;;;;;;-3.48;82.85;102392.38;4947501;28;20035;-65
2022/12/18 07:51:04;;;;;;;7.28;3.78;;;;;;;-3.43;83.06;102394.34;4931384;29;20181;-67
2022/12/18 07:53:29;;;;;;;2.55;2.08;;;;;;;-3.45;82.26;102393.78;4940085;29;20038;-65
2022/12/18 07:55:56;;;;;;;3.43;2.47;;;;;;;-3.54;82.72;102393.25;4938044;28;20362;-67
2022/12/18 07:58:22;;;;;;;8.83;4.13;;;;;;;-3.88;83.59;102394.59;4947814;29;20039;-66
2022/12/18 08:00:47;;;;;;;12.77;3.80;;;;;;;-3.71;83.65;102402.72;4947899;28;20038;-66
2022/12/18 08:03:13;;;;;;;9.07;4.97;;;;;;;-3.71;83.93;102398.28;4949892;29;20045;-66
2022/12/18 08:05:38;;;;;;;3.03;2.63;;;;;;;-3.74;83.83;102396.09;4947638;29;20031;-66
2022/12/18 08:08:04;;;;;;;4.90;2.50;;;;;;;-3.59;83.51;102405.44;4950322;28;20479;-66
2022/12/18 08:10:29;;;;;;;3.63;2.85;;;;;;;-3.35;83.28;102404.59;4950333;29;20060;-67
2022/12/18 08:12:55;;;;;;;6.78;3.22;;;;;;;-3.43;82.46;102399.63;4948424;29;20106;-67
2022/12/18 08:15:20;;;;;;;3.23;2.93;;;;;;;-3.37;81.74;102409.28;4941381;28;20040;-66
2022/12/18 08:17:46;;;;;;;6.20;3.58;;;;;;;-3.49;82.37;102403.13;4933790;29;20043;-67
2022/12/18 08:20:11;;;;;;;2.87;2.17;;;;;;;-3.45;82.30;102391.13;4949687;29;20122;-66
2022/12/18 08:22:37;;;;;;;6.40;3.13;;;;;;;-3.50;81.83;102388.38;4949797;29;20038;-67
2022/12/18 08:25:06;;;;;;;4.70;2.73;;;;;;;-3.66;82.84;102380.00;4943716;28;20412;-66
2022/12/18 08:27:31;;;;;;;3.97;3.23;;;;;;;-3.45;82.91;102375.34;4950059;29;20039;-66
2022/12/18 08:29:57;;;;;;;3.37;1.97;;;;;;;-3.55;83.11;102386.38;4938270;28;20054;-66
2022/12/18 08:32:23;;;;;;;6.10;2.63;;;;;;;-3.44;82.54;102384.84;4963349;28;20123;-66
2022/12/18 08:34:49;;;;;;;4.30;2.37;;;;;;;-3.32;82.52;102383.09;4947950;29;20033;-66
2022/12/18 08:37:14;;;;;;;3.22;2.90;;;;;;;-3.31;81.48;102388.13;4953865;29;20478;-67
2022/12/18 08:39:39;;;;;;;9.23;4.72;;;;;;;-3.56;82.02;102378.72;4953753;28;20122;-66
2022/12/18 08:44:49;;;;;;;6.13;3.42;;;;;;;-3.32;81.90;102370.75;4954105;29;20031;-66
2022/12/18 08:47:14;;;;;;;7.73;2.63;;;;;;;-3.27;81.90;102383.25;4950304;28;20488;-67
2022/12/18 08:49:40;;;;;;;6.63;3.65;;;;;;;-3.13;81.62;102389.94;4951628;28;20047;-67
2022/12/18 08:52:06;;;;;;;7.72;3.30;;;;;;;-2.99;81.22;102384.31;4952834;29;20042;-66
2022/12/18 08:54:31;;;;;;;6.23;4.20;;;;;;;-3.22;80.88;102392.09;4943744;28;20382;-66
2022/12/18 08:56:57;;;;;;;4.37;2.30;;;;;;;-2.95;81.19;102397.84;4945738;28;20027;-67
2022/12/18 08:59:23;;;;;;;2.03;1.87;;;;;;;-2.73;80.18;102387.63;4953286;28;20496;-66
2022/12/18 09:01:48;;;;;;;4.30;2.85;;;;;;;-2.78;80.05;102390.94;4954480;28;20527;-65
2022/12/18 09:04:14;;;;;;;8.48;3.35;;;;;;;-2.68;79.31;102388.56;4933832;29;20051;-65
2022/12/18 09:06:40;;;;;;;13.20;5.28;;;;;;;-2.67;79.07;102384.13;4949999;28;20027;-65
2022/12/18 09:09:06;;;;;;;6.93;4.18;;;;;;;-2.56;78.88;102391.25;4947534;28;20032;-65
2022/12/18 09:11:32;;;;;;;7.57;4.15;;;;;;;-2.50;79.52;102382.44;4939816;28;20031;-65
2022/12/18 09:14:00;;;;;;;8.35;4.22;;;;;;;-2.18;78.49;102381.13;4953546;28;20035;-65
2022/12/18 09:16:27;;;;;;;3.45;3.00;;;;;;;-2.00;77.70;102379.22;4942058;28;20496;-65
2022/12/18 09:18:59;;;;;;;5.45;3.55;;;;;;;-1.72;77.20;102383.78;4946094;28;20066;-65
2022/12/18 09:21:26;;;;;;;4.97;2.70;;;;;;;-1.62;76.75;102385.84;4945893;28;20095;-67
2022/12/18 09:23:54;;;;;;;8.93;3.22;;;;;;;-1.61;75.40;102384.84;4944918;28;20046;-65
2022/12/18 09:26:21;;;;;;;6.78;2.92;;;;;;;-1.60;75.68;102387.25;4949071;28;20115;-65
2022/12/18 09:28:46;;;;;;;5.70;3.20;;;;;;;-1.51;74.99;102390.34;4939118;29;20553;-65
2022/12/18 09:31:13;;;;;;;5.68;3.15;;;;;;;-1.45;74.25;102390.22;4942874;29;20123;-65
2022/12/18 09:33:39;;;;;;;7.18;3.70;;;;;;;-1.91;75.63;102391.03;4942343;28;20032;-65
2022/12/18 09:36:07;;;;;;;6.13;3.47;;;;;;;-1.62;75.08;102383.22;4948817;28;20090;-65
2022/12/18 09:38:36;;;;;;;9.43;3.78;;;;;;;-1.56;74.81;102382.28;4944099;28;20424;-65
2022/12/18 09:41:21;;;;;;;7.45;3.17;;;;;;;-1.57;74.64;102383.34;4944739;28;20460;-67
2022/12/18 09:44:05;;;;;;;8.95;4.72;;;;;;;-1.61;73.50;102385.66;4950940;28;20043;-65
2022/12/18 09:46:34;;;;;;;7.82;3.30;;;;;;;-1.59;74.21;102388.06;4959261;28;20032;-65
2022/12/18 09:49:05;;;;;;;5.15;3.05;;;;;;;-1.39;73.79;102383.19;4945230;28;20126;-65
2022/12/18 09:51:37;;;;;;;12.90;4.25;;;;;;;-1.43;73.37;102385.50;4940790;28;20378;-65
2022/12/18 09:54:38;;;;;;;6.70;3.25;;;;;;;-1.20;72.77;102392.59;4939044;28;20051;-65
2022/12/18 09:57:03;;;;;;;6.07;3.13;;;;;;;-1.07;72.67;102393.13;4931193;28;20306;-65
2022/12/18 09:59:37;;;;;;;8.10;3.42;;;;;;;-1.08;72.45;102396.81;4957063;28;20058;-65
2022/12/18 10:02:16;;;;;;;7.60;3.08;;;;;;;-0.79;72.42;102394.97;4944428;28;20023;-65
2022/12/18 10:04:42;;;;;;;4.82;2.67;;;;;;;-0.90;71.25;102393.19;4952660;28;20035;-65
2022/12/18 10:07:23;;;;;;;4.68;3.13;;;;;;;-0.97;71.02;102393.31;4948638;28;20059;-65
2022/12/18 10:10:00;;;;;;;8.13;3.47;;;;;;;-0.99;70.44;102403.31;4940295;29;20114;-65
2022/12/18 10:12:42;;;;;;;11.50;4.07;;;;;;;-0.91;70.76;102402.16;4939605;29;20055;-65
2022/12/18 10:15:10;;;;;;;;;;;;;;;-1.11;70.84;102396.47;4949063;28;20150;-66
2022/12/18 10:17:58;;;;;;;7.95;4.15;;;;;;;-1.04;72.00;102403.22;4943218;29;19961;-65
2022/12/18 10:20:37;;;;;;;12.63;3.42;;;;;;;-1.02;71.79;102400.34;4939544;29;20050;-65
2022/12/18 10:23:09;;;;;;;5.00;3.45;;;;;;;-0.96;71.48;102394.13;4936341;28;20034;-65
2022/12/18 10:25:50;;;;;;;4.63;2.70;;;;;;;-0.90;70.85;102398.47;4947604;29;20031;-65
2022/12/18 10:28:18;;;;;;;11.77;3.92;;;;;;;-1.12;72.42;102408.06;4952572;28;20158;-65
2022/12/18 10:30:44;;;;;;;12.60;2.92;;;;;;;-0.92;71.07;102411.94;4949468;28;20039;-65
2022/12/18 10:33:16;;;;;;;14.73;5.80;;;;;;;-1.12;71.91;102406.22;4949791;28;20045;-65
2022/12/18 10:35:43;;;;;;;4.43;3.58;;;;;;;-1.02;72.62;102419.66;4946802;29;20039;-65
2022/12/18 10:38:14;;;;;;;4.65;3.70;;;;;;;-0.91;71.75;102418.03;4949750;28;20509;-65
2022/12/18 10:41:09;;;;;;;4.82;2.83;;;;;;;-0.63;70.58;102428.63;4953103;28;20051;-65
2022/12/18 10:43:39;;;;;;;14.55;5.60;;;;;;;-0.66;70.46;102421.16;4944858;28;20043;-65
2022/12/18 10:46:07;;;;;;;6.53;4.63;;;;;;;-0.71;70.51;102410.47;4942162;28;20058;-65
2022/12/18 10:48:36;;;;;;;4.30;3.60;;;;;;;-0.75;70.85;102408.53;4956792;28;20126;-65
2022/12/18 10:51:03;;;;;;;6.55;3.55;;;;;;;-0.61;70.76;102418.59;4943927;28;20512;-65
2022/12/18 10:53:32;;;;;;;13.10;4.03;;;;;;;-0.56;71.36;102408.09;4922274;29;20125;-65
2022/12/18 10:55:58;;;;;;;8.50;3.15;;;;;;;-0.34;70.17;102405.59;4942097;28;20485;-65
2022/12/18 10:58:26;;;;;;;4.43;2.85;;;;;;;-0.26;70.08;102403.38;4946055;29;20036;-65
2022/12/18 11:01:19;;;;;;;4.55;3.17;;;;;;;-0.42;70.67;102405.97;4949319;29;20043;-65
2022/12/18 11:04:08;;;;;;;10.32;3.25;;;;;;;-0.53;70.99;102394.41;4933042;28;20048;-65
2022/12/18 11:06:53;;;;;;;4.80;2.88;;;;;;;-0.38;69.99;102394.69;4938633;29;20404;-65
2022/12/18 11:09:20;;;;;;;3.50;3.15;;;;;;;-0.32;70.25;102385.78;4963184;28;20031;-65
2022/12/18 11:11:52;;;;;;;3.10;2.55;;;;;;;-0.54;70.24;102387.50;4948764;28;20031;-65
2022/12/18 11:14:25;;;;;;;9.80;3.80;;;;;;;-0.55;71.66;102398.34;4947964;29;20240;-65
2022/12/18 11:16:52;;;;;;;11.57;4.35;;;;;;;-0.61;71.73;102408.03;4961978;28;20043;-65
2022/12/18 11:19:34;;;;;;;10.57;3.72;;;;;;;-0.50;71.65;102401.88;4946148;29;20054;-67
2022/12/18 11:22:03;;;;;;;12.80;4.97;;;;;;;-0.57;71.39;102403.88;4938235;28;20404;-65
2022/12/18 11:24:32;;;;;;;11.18;4.07;;;;;;;-0.50;71.17;102393.94;4933916;29;20370;-65
2022/12/18 11:27:03;;;;;;;10.57;4.30;;;;;;;-0.28;71.09;102386.91;4950801;29;20484;-65
2022/12/18 11:29:38;;;;;;;;;;;;;;;-0.14;70.83;102398.81;4920185;29;20044;-65
2022/12/18 11:32:27;;;;;;;10.20;3.88;;;;;;;-0.09;70.75;102380.34;4948048;28;19918;-65
2022/12/18 11:35:35;;;;;;;7.70;3.65;;;;;;;-0.12;71.25;102380.03;4950121;28;20046;-65
2022/12/18 11:38:12;;;;;;;6.60;2.97;;;;;;;-0.05;70.66;102370.88;4939650;28;20583;-67
2022/12/18 11:40:41;;;;;;;11.55;4.88;;;;;;;-0.01;70.37;102357.97;4939948;28;20428;-66
2022/12/18 11:43:21;;;;;;;14.85;4.30;;;;;;;-0.29;71.20;102366.00;4950090;28;20071;-65
2022/12/18 11:46:04;;;;;;;6.57;3.70;;;;;;;0.05;70.46;102356.19;4950370;29;20063;-65